createdAt,value
2022-08-17T00:00:01.346Z,81.87
2022-08-17T00:00:49.084Z,83.07
2022-08-17T00:01:52.826Z,82.67
2022-08-17T00:02:44.008Z,82.17
2022-08-17T00:03:41.306Z,83.07
2022-08-17T00:04:40.303Z,82.81
2022-08-17T00:05:41.018Z,82.71
2022-08-17T00:06:40.315Z,83.21
2022-08-17T00:07:40.277Z,83.61
2022-08-17T00:08:43.021Z,83.37
2022-08-17T00:09:43.413Z,84.11
2022-08-17T00:10:41.019Z,83.61
2022-08-17T00:11:40.213Z,84.11
2022-08-17T00:12:43.053Z,83.61
2022-08-17T00:13:41.430Z,84.41
2022-08-17T00:14:40.166Z,84.41
2022-08-17T00:15:40.175Z,84.31
2022-08-17T00:16:51.943Z,84.41
2022-08-17T00:17:41.163Z,84.25
2022-08-17T00:19:00.937Z,84.15
2022-08-17T00:19:41.094Z,83.95
2022-08-17T00:20:40.133Z,84.85
2022-08-17T00:22:31.003Z,84.65
2022-08-17T00:22:41.131Z,84.15
2022-08-17T00:23:44.447Z,84.25
2022-08-17T00:24:41.068Z,84.05
2022-08-17T00:25:40.080Z,84.15
2022-08-17T00:26:45.391Z,84.25
2022-08-17T00:27:40.017Z,84.15
2022-08-17T00:28:39.999Z,84.25
2022-08-17T00:29:40.029Z,84.15
2022-08-17T00:30:53.164Z,84.25
2022-08-17T00:31:40.993Z,84.35
2022-08-17T00:33:23.113Z,84.75
2022-08-17T00:33:40.948Z,84.95
2022-08-17T00:34:39.965Z,84.75
2022-08-17T00:35:39.946Z,85.05
2022-08-17T00:36:39.948Z,84.85
2022-08-17T00:37:39.931Z,84.85
2022-08-17T00:38:39.888Z,84.99
2022-08-17T00:39:39.942Z,84.95
2022-08-17T00:40:44.663Z,84.79
2022-08-17T00:41:42.528Z,84.79
2022-08-17T00:42:39.918Z,85.60
2022-08-17T00:43:39.877Z,85.30
2022-08-17T00:45:00.832Z,85.60
2022-08-17T00:45:39.813Z,86.30
2022-08-17T00:46:39.815Z,85.99
2022-08-17T00:47:39.792Z,86.10
2022-08-17T00:48:39.784Z,86.19
2022-08-17T00:49:39.803Z,85.39
2022-08-17T00:50:39.757Z,85.80
2022-08-17T00:51:40.522Z,85.30
2022-08-17T00:52:39.773Z,85.19
2022-08-17T00:53:39.751Z,85.30
2022-08-17T00:54:42.108Z,85.39
2022-08-17T00:55:40.704Z,85.10
2022-08-17T00:56:39.711Z,85.30
2022-08-17T00:57:39.714Z,84.79
2022-08-17T00:58:39.687Z,85.19
2022-08-17T00:59:39.698Z,85.19
2022-08-17T01:00:39.673Z,85.19
2022-08-17T01:01:39.717Z,85.49
2022-08-17T01:02:42.310Z,85.60
2022-08-17T01:03:40.627Z,85.19
2022-08-17T01:04:39.610Z,85.39
2022-08-17T01:05:42.092Z,85.19
2022-08-17T01:06:39.571Z,86.30
2022-08-17T01:07:39.605Z,85.99
2022-08-17T01:08:39.556Z,85.39
2022-08-17T01:09:39.541Z,85.39
2022-08-17T01:11:00.917Z,84.79
2022-08-17T01:11:40.525Z,84.89
2022-08-17T01:12:39.584Z,84.29
2022-08-17T01:13:41.138Z,84.39
2022-08-17T01:14:39.503Z,83.59
2022-08-17T01:15:40.030Z,84.09
2022-08-17T01:16:39.480Z,84.19
2022-08-17T01:17:39.453Z,84.19
2022-08-17T01:18:39.487Z,83.69
2022-08-17T01:19:39.501Z,84.53
2022-08-17T01:20:47.932Z,84.59
2022-08-17T01:21:40.415Z,84.59
2022-08-17T01:22:39.437Z,84.39
2022-08-17T01:23:39.421Z,83.13
2022-08-17T01:24:39.396Z,84.03
2022-08-17T01:25:39.384Z,84.57
2022-08-17T01:26:39.349Z,84.37
2022-08-17T01:27:39.381Z,84.88
2022-08-17T01:28:54.974Z,84.91
2022-08-17T01:29:40.321Z,85.22
2022-08-17T01:30:58.744Z,85.41
2022-08-17T01:31:40.315Z,85.52
2022-08-17T01:32:39.301Z,85.92
2022-08-17T01:33:39.331Z,86.22
2022-08-17T01:34:43.516Z,86.02
2022-08-17T01:35:40.255Z,86.52
2022-08-17T01:36:39.263Z,86.22
2022-08-17T01:37:39.240Z,86.38
2022-08-17T01:38:40.026Z,86.18
2022-08-17T01:39:39.331Z,86.28
2022-08-17T01:40:39.284Z,85.27
2022-08-17T01:41:39.183Z,85.27
2022-08-17T01:42:39.209Z,85.27
2022-08-17T01:43:39.170Z,85.17
2022-08-17T01:44:39.177Z,84.77
2022-08-17T01:45:39.157Z,85.03
2022-08-17T01:46:39.174Z,84.93
2022-08-17T01:47:46.043Z,84.43
2022-08-17T01:48:39.159Z,84.83
2022-08-17T01:49:39.112Z,85.24
2022-08-17T01:50:39.103Z,84.93
2022-08-17T01:51:39.557Z,84.23
2022-08-17T01:52:39.075Z,84.83
2022-08-17T01:53:39.075Z,85.03
2022-08-17T01:54:39.066Z,85.63
2022-08-17T01:55:40.067Z,85.44
2022-08-17T01:56:39.059Z,85.33
2022-08-17T01:57:39.043Z,85.03
2022-08-17T01:58:45.532Z,85.13
2022-08-17T01:59:39.009Z,85.13
2022-08-17T02:01:00.043Z,85.08
2022-08-17T02:01:40.072Z,84.97
2022-08-17T02:02:38.979Z,84.47
2022-08-17T02:03:39.003Z,85.27
2022-08-17T02:04:38.952Z,85.38
2022-08-17T02:05:38.955Z,86.28
2022-08-17T02:06:52.894Z,86.08
2022-08-17T02:07:59.834Z,86.08
2022-08-17T02:09:02.339Z,86.18
2022-08-17T02:09:39.944Z,86.48
2022-08-17T02:10:38.889Z,86.68
2022-08-17T02:11:39.872Z,85.97
2022-08-17T02:12:39.893Z,86.42
2022-08-17T02:13:38.853Z,86.38
2022-08-17T02:14:38.874Z,86.58
2022-08-17T02:15:39.540Z,86.52
2022-08-17T02:16:41.541Z,86.62
2022-08-17T02:17:38.815Z,86.62
2022-08-17T02:18:38.821Z,86.82
2022-08-17T02:19:38.815Z,87.02
2022-08-17T02:20:42.366Z,86.92
2022-08-17T02:21:39.766Z,87.42
2022-08-17T02:22:38.774Z,87.73
2022-08-17T02:23:38.779Z,87.57
2022-08-17T02:25:00.522Z,87.77
2022-08-17T02:25:39.723Z,87.77
2022-08-17T02:26:38.734Z,87.77
2022-08-17T02:27:38.700Z,87.87
2022-08-17T02:28:38.698Z,87.96
2022-08-17T02:29:38.695Z,88.21
2022-08-17T02:31:02.146Z,88.07
2022-08-17T02:31:39.659Z,87.87
2022-08-17T02:32:39.540Z,87.26
2022-08-17T02:33:42.827Z,87.87
2022-08-17T02:34:39.668Z,87.66
2022-08-17T02:35:38.630Z,87.96
2022-08-17T02:36:38.618Z,88.27
2022-08-17T02:37:38.591Z,88.17
2022-08-17T02:38:38.609Z,88.11
2022-08-17T02:39:38.657Z,87.91
2022-08-17T02:40:38.595Z,88.27
2022-08-17T02:41:38.569Z,88.11
2022-08-17T02:42:38.592Z,87.71
2022-08-17T02:43:38.537Z,87.91
2022-08-17T02:44:39.965Z,88.37
2022-08-17T02:45:38.509Z,88.21
2022-08-17T02:46:41.053Z,88.51
2022-08-17T02:47:38.486Z,88.41
2022-08-17T02:48:38.510Z,88.41
2022-08-17T02:49:38.482Z,89.01
2022-08-17T02:50:38.455Z,88.95
2022-08-17T02:51:39.049Z,88.65
2022-08-17T02:52:43.528Z,89.26
2022-08-17T02:53:39.576Z,89.56
2022-08-17T02:54:41.251Z,89.96
2022-08-17T02:55:38.418Z,89.76
2022-08-17T02:56:38.420Z,90.06
2022-08-17T02:57:38.395Z,90.06
2022-08-17T02:58:38.387Z,89.96
2022-08-17T02:59:38.366Z,89.86
2022-08-17T03:00:39.049Z,89.76
2022-08-17T03:01:38.519Z,89.56
2022-08-17T03:02:38.388Z,89.50
2022-08-17T03:03:38.323Z,89.46
2022-08-17T03:04:38.320Z,90.16
2022-08-17T03:05:38.287Z,89.90
2022-08-17T03:06:41.059Z,89.30
2022-08-17T03:07:38.295Z,89.80
2022-08-17T03:08:38.283Z,89.36
2022-08-17T03:09:38.270Z,89.50
2022-08-17T03:10:38.253Z,89.90
2022-08-17T03:11:38.221Z,90.00
2022-08-17T03:12:38.227Z,90.00
2022-08-17T03:13:38.228Z,89.90
2022-08-17T03:14:41.414Z,89.60
2022-08-17T03:15:38.180Z,90.00
2022-08-17T03:16:41.065Z,89.84
2022-08-17T03:17:38.174Z,89.84
2022-08-17T03:18:39.057Z,90.00
2022-08-17T03:19:39.698Z,89.80
2022-08-17T03:20:39.137Z,89.50
2022-08-17T03:21:38.129Z,89.90
2022-08-17T03:22:38.410Z,89.90
2022-08-17T03:23:38.141Z,89.90
2022-08-17T03:24:38.114Z,89.80
2022-08-17T03:25:38.679Z,90.06
2022-08-17T03:26:38.575Z,90.06
2022-08-17T03:27:38.245Z,89.96
2022-08-17T03:28:38.049Z,90.06
2022-08-17T03:29:38.036Z,90.06
2022-08-17T03:30:38.009Z,89.26
2022-08-17T03:31:38.039Z,90.00
2022-08-17T03:32:38.004Z,90.11
2022-08-17T03:33:37.985Z,89.70
2022-08-17T03:34:38.016Z,90.11
2022-08-17T03:35:37.974Z,89.30
2022-08-17T03:36:37.963Z,90.00
2022-08-17T03:37:37.938Z,91.11
2022-08-17T03:38:39.061Z,90.61
2022-08-17T03:39:38.034Z,91.11
2022-08-17T03:40:57.256Z,90.55
2022-08-17T03:41:38.932Z,91.31
2022-08-17T03:42:37.890Z,90.65
2022-08-17T03:43:37.871Z,90.81
2022-08-17T03:44:38.548Z,89.75
2022-08-17T03:45:38.560Z,89.84
2022-08-17T03:46:38.110Z,89.84
2022-08-17T03:47:37.841Z,89.54
2022-08-17T03:48:37.864Z,90.05
2022-08-17T03:49:37.806Z,89.99
2022-08-17T03:50:37.812Z,89.95
2022-08-17T03:51:37.809Z,89.95
2022-08-17T03:52:37.779Z,90.85
2022-08-17T03:53:37.774Z,91.05
2022-08-17T03:54:37.762Z,91.05
2022-08-17T03:55:37.743Z,90.95
2022-08-17T03:56:37.758Z,90.95
2022-08-17T03:57:37.755Z,90.55
2022-08-17T03:58:37.723Z,91.25
2022-08-17T03:59:37.739Z,90.95
2022-08-17T04:00:39.764Z,91.15
2022-08-17T04:01:37.799Z,91.25
2022-08-17T04:02:37.696Z,91.15
2022-08-17T04:03:37.659Z,91.15
2022-08-17T04:04:37.635Z,91.05
2022-08-17T04:05:37.642Z,91.25
2022-08-17T04:06:37.622Z,90.95
2022-08-17T04:07:37.615Z,90.91
2022-08-17T04:08:37.641Z,90.91
2022-08-17T04:09:37.599Z,91.05
2022-08-17T04:10:41.362Z,91.11
2022-08-17T04:11:38.574Z,90.81
2022-08-17T04:12:37.577Z,90.30
2022-08-17T04:13:37.545Z,90.05
2022-08-17T04:14:52.213Z,90.00
2022-08-17T04:15:39.061Z,89.80
2022-08-17T04:16:37.516Z,89.80
2022-08-17T04:17:37.514Z,90.00
2022-08-17T04:18:37.523Z,89.96
2022-08-17T04:19:37.506Z,89.86
2022-08-17T04:20:37.482Z,90.06
2022-08-17T04:21:37.466Z,90.11
2022-08-17T04:22:37.452Z,89.96
2022-08-17T04:23:37.472Z,90.06
2022-08-17T04:24:37.440Z,89.66
2022-08-17T04:25:37.447Z,89.66
2022-08-17T04:26:53.423Z,88.95
2022-08-17T04:27:38.395Z,88.95
2022-08-17T04:28:37.595Z,89.36
2022-08-17T04:29:49.947Z,88.95
2022-08-17T04:30:38.378Z,88.65
2022-08-17T04:31:37.350Z,88.65
2022-08-17T04:33:00.673Z,88.65
2022-08-17T04:33:38.332Z,89.26
2022-08-17T04:34:37.589Z,88.65
2022-08-17T04:35:37.330Z,89.01
2022-08-17T04:36:37.314Z,88.21
2022-08-17T04:37:52.057Z,88.25
2022-08-17T04:38:37.284Z,88.21
2022-08-17T04:39:37.326Z,88.41
2022-08-17T04:40:37.312Z,88.41
2022-08-17T04:41:38.065Z,88.01
2022-08-17T04:42:38.247Z,88.11
2022-08-17T04:43:37.233Z,88.11
2022-08-17T04:44:38.187Z,87.91
2022-08-17T04:45:37.229Z,87.81
2022-08-17T04:46:37.220Z,87.51
2022-08-17T04:47:37.171Z,87.51
2022-08-17T04:48:37.672Z,87.41
2022-08-17T04:49:37.155Z,87.81
2022-08-17T04:50:37.143Z,87.21
2022-08-17T04:51:37.152Z,87.10
2022-08-17T04:52:43.265Z,87.10
2022-08-17T04:53:41.081Z,87.35
2022-08-17T04:54:37.115Z,87.85
2022-08-17T04:55:37.089Z,87.51
2022-08-17T04:56:37.103Z,87.41
2022-08-17T04:57:40.619Z,87.51
2022-08-17T04:58:40.599Z,87.51
2022-08-17T04:59:37.040Z,87.60
2022-08-17T05:00:37.047Z,87.77
2022-08-17T05:01:37.152Z,87.51
2022-08-17T05:02:37.019Z,87.57
2022-08-17T05:03:38.002Z,87.41
2022-08-17T05:04:36.982Z,87.66
2022-08-17T05:05:36.986Z,87.81
2022-08-17T05:06:36.998Z,88.07
2022-08-17T05:07:36.955Z,87.57
2022-08-17T05:08:36.944Z,87.51
2022-08-17T05:09:36.938Z,87.51
2022-08-17T05:10:36.929Z,88.41
2022-08-17T05:11:36.939Z,88.41
2022-08-17T05:12:36.919Z,88.31
2022-08-17T05:13:36.887Z,87.71
2022-08-17T05:14:36.896Z,87.46
2022-08-17T05:15:36.897Z,87.96
2022-08-17T05:16:36.852Z,88.81
2022-08-17T05:17:36.880Z,88.31
2022-08-17T05:18:36.839Z,87.60
2022-08-17T05:19:37.393Z,88.41
2022-08-17T05:20:36.829Z,88.27
2022-08-17T05:21:36.804Z,88.27
2022-08-17T05:22:36.837Z,87.96
2022-08-17T05:23:42.929Z,87.16
2022-08-17T05:24:40.696Z,86.56
2022-08-17T05:25:37.770Z,87.16
2022-08-17T05:26:39.577Z,86.96
2022-08-17T05:27:36.735Z,87.87
2022-08-17T05:28:36.771Z,87.46
2022-08-17T05:29:36.717Z,87.66
2022-08-17T05:30:36.700Z,87.46
2022-08-17T05:31:36.731Z,87.37
2022-08-17T05:32:39.508Z,86.66
2022-08-17T05:33:41.447Z,86.86
2022-08-17T05:34:37.683Z,86.72
2022-08-17T05:35:40.100Z,87.12
2022-08-17T05:36:42.332Z,87.22
2022-08-17T05:37:37.625Z,87.42
2022-08-17T05:38:36.665Z,86.72
2022-08-17T05:39:36.656Z,87.12
2022-08-17T05:40:36.625Z,86.22
2022-08-17T05:41:36.616Z,86.88
2022-08-17T05:42:36.586Z,85.97
2022-08-17T05:43:36.561Z,85.97
2022-08-17T05:44:36.588Z,86.38
2022-08-17T05:45:54.633Z,86.38
2022-08-17T05:46:37.543Z,86.28
2022-08-17T05:47:36.533Z,86.44
2022-08-17T05:48:39.795Z,86.28
2022-08-17T05:49:36.504Z,85.44
2022-08-17T05:50:36.520Z,86.24
2022-08-17T05:51:36.507Z,86.14
2022-08-17T05:52:36.477Z,85.44
2022-08-17T05:53:37.085Z,85.53
2022-08-17T05:54:36.442Z,85.33
2022-08-17T05:55:36.445Z,85.63
2022-08-17T05:56:36.458Z,84.83
2022-08-17T05:57:36.453Z,84.43
2022-08-17T05:58:37.072Z,85.03
2022-08-17T05:59:36.404Z,84.93
2022-08-17T06:00:36.516Z,85.13
2022-08-17T06:01:37.427Z,84.74
2022-08-17T06:02:36.392Z,84.23
2022-08-17T06:03:36.400Z,84.33
2022-08-17T06:04:36.349Z,84.33
2022-08-17T06:05:37.108Z,85.13
2022-08-17T06:06:36.314Z,84.83
2022-08-17T06:07:36.376Z,84.79
2022-08-17T06:08:36.286Z,84.69
2022-08-17T06:09:36.290Z,84.89
2022-08-17T06:10:36.279Z,84.89
2022-08-17T06:11:36.266Z,85.10
2022-08-17T06:12:36.254Z,84.29
2022-08-17T06:13:36.332Z,84.29
2022-08-17T06:14:36.243Z,84.69
2022-08-17T06:15:36.231Z,84.89
2022-08-17T06:16:36.209Z,85.55
2022-08-17T06:17:36.214Z,84.39
2022-08-17T06:18:36.212Z,84.39
2022-08-17T06:19:36.220Z,84.25
2022-08-17T06:20:36.165Z,84.25
2022-08-17T06:21:36.163Z,84.05
2022-08-17T06:22:36.139Z,84.15
2022-08-17T06:23:36.139Z,84.15
2022-08-17T06:24:36.151Z,84.45
2022-08-17T06:25:36.116Z,84.35
2022-08-17T06:26:38.493Z,83.95
2022-08-17T06:27:36.099Z,84.25
2022-08-17T06:28:36.078Z,84.45
2022-08-17T06:29:36.071Z,84.55
2022-08-17T06:30:58.395Z,84.05
2022-08-17T06:31:37.051Z,83.35
2022-08-17T06:32:36.035Z,83.45
2022-08-17T06:33:36.043Z,83.51
2022-08-17T06:34:36.028Z,83.35
2022-08-17T06:35:36.053Z,83.15
2022-08-17T06:36:36.036Z,84.15
2022-08-17T06:37:35.993Z,83.61
2022-08-17T06:38:38.537Z,83.21
2022-08-17T06:39:36.048Z,83.71
2022-08-17T06:40:35.963Z,84.15
2022-08-17T06:41:37.966Z,83.11
2022-08-17T06:42:54.138Z,83.41
2022-08-17T06:43:36.930Z,83.61
2022-08-17T06:44:42.128Z,83.11
2022-08-17T06:45:36.891Z,82.21
2022-08-17T06:46:38.624Z,82.21
2022-08-17T06:47:36.115Z,82.91
2022-08-17T06:48:35.863Z,82.71
2022-08-17T06:49:35.845Z,82.91
2022-08-17T06:50:35.857Z,83.21
2022-08-17T06:51:35.877Z,82.51
2022-08-17T06:52:45.990Z,82.41
2022-08-17T06:53:36.799Z,82.77
2022-08-17T06:54:35.830Z,82.67
2022-08-17T06:55:38.589Z,83.07
2022-08-17T06:56:53.408Z,82.57
2022-08-17T06:57:36.798Z,82.37
2022-08-17T06:58:35.795Z,81.93
2022-08-17T06:59:35.757Z,82.23
2022-08-17T07:00:37.648Z,82.53
2022-08-17T07:01:35.795Z,81.03
2022-08-17T07:02:52.457Z,80.83
2022-08-17T07:03:37.116Z,81.23
2022-08-17T07:04:35.718Z,81.23
2022-08-17T07:05:35.689Z,81.79
2022-08-17T07:06:38.043Z,80.59
2022-08-17T07:07:35.663Z,80.39
2022-08-17T07:08:35.667Z,80.79
2022-08-17T07:09:37.633Z,80.39
2022-08-17T07:10:35.619Z,79.65
2022-08-17T07:11:35.608Z,80.05
2022-08-17T07:12:42.667Z,80.05
2022-08-17T07:13:35.622Z,79.46
2022-08-17T07:14:35.621Z,79.96
2022-08-17T07:15:36.096Z,79.96
2022-08-17T07:16:35.553Z,79.61
2022-08-17T07:17:47.588Z,79.02
2022-08-17T07:18:36.536Z,79.02
2022-08-17T07:19:35.520Z,79.08
2022-08-17T07:20:35.549Z,79.08
2022-08-17T07:21:35.497Z,78.78
2022-08-17T07:22:58.121Z,78.28
2022-08-17T07:23:36.617Z,78.14
2022-08-17T07:24:35.510Z,78.14
2022-08-17T07:25:35.465Z,77.74
2022-08-17T07:26:38.088Z,77.81
2022-08-17T07:27:35.449Z,77.44
2022-08-17T07:28:35.421Z,76.41
2022-08-17T07:29:35.410Z,76.21
2022-08-17T07:30:37.116Z,75.91
2022-08-17T07:31:43.105Z,76.17
2022-08-17T07:32:36.088Z,76.77
2022-08-17T07:33:36.123Z,75.97
2022-08-17T07:34:35.351Z,76.07
2022-08-17T07:35:40.760Z,75.57
2022-08-17T07:36:36.327Z,76.17
2022-08-17T07:37:38.095Z,76.47
2022-08-17T07:38:35.338Z,75.74
2022-08-17T07:39:58.831Z,75.54
2022-08-17T07:40:36.377Z,75.64
2022-08-17T07:41:57.573Z,75.34
2022-08-17T07:42:39.721Z,75.34
2022-08-17T07:43:36.114Z,75.44
2022-08-17T07:44:35.257Z,75.54
2022-08-17T07:45:35.241Z,74.64
2022-08-17T07:46:35.254Z,75.50
2022-08-17T07:47:38.110Z,75.50
2022-08-17T07:48:35.213Z,75.60
2022-08-17T07:49:35.208Z,75.20
2022-08-17T07:50:35.195Z,75.27
2022-08-17T07:51:35.630Z,74.27
2022-08-17T07:52:50.464Z,74.67
2022-08-17T07:53:36.163Z,75.46
2022-08-17T07:54:35.154Z,74.63
2022-08-17T07:55:35.148Z,73.94
2022-08-17T07:56:35.637Z,73.74
2022-08-17T07:57:35.133Z,74.54
2022-08-17T07:58:35.124Z,74.24
2022-08-17T07:59:35.601Z,75.23
2022-08-17T08:00:35.083Z,74.13
2022-08-17T08:01:41.597Z,74.20
2022-08-17T08:02:36.082Z,72.71
2022-08-17T08:03:35.060Z,73.11
2022-08-17T08:05:00.516Z,73.90
2022-08-17T08:05:50.421Z,72.81
2022-08-17T08:06:36.020Z,72.31
2022-08-17T08:07:35.012Z,72.41
2022-08-17T08:08:35.012Z,73.11
2022-08-17T08:09:34.998Z,72.01
2022-08-17T08:10:37.613Z,71.81
2022-08-17T08:11:34.967Z,71.51
2022-08-17T08:12:34.977Z,71.45
2022-08-17T08:13:35.228Z,71.35
2022-08-17T08:14:34.934Z,72.51
2022-08-17T08:15:34.932Z,71.35
2022-08-17T08:16:34.921Z,71.75
2022-08-17T08:17:34.903Z,71.12
2022-08-17T08:18:53.313Z,70.22
2022-08-17T08:19:35.882Z,70.32
2022-08-17T08:20:52.184Z,70.39
2022-08-17T08:21:35.882Z,69.99
2022-08-17T08:22:34.851Z,69.32
2022-08-17T08:23:35.712Z,70.09
2022-08-17T08:24:34.830Z,69.53
2022-08-17T08:25:34.823Z,69.53
2022-08-17T08:26:34.809Z,69.43
2022-08-17T08:27:34.820Z,68.93
2022-08-17T08:28:35.141Z,68.93
2022-08-17T08:29:34.805Z,68.99
2022-08-17T08:30:34.771Z,68.20
2022-08-17T08:31:37.758Z,68.10
2022-08-17T08:32:35.743Z,68.60
2022-08-17T08:33:34.744Z,67.18
2022-08-17T08:34:45.036Z,66.67
2022-08-17T08:35:35.729Z,67.14
2022-08-17T08:37:12.598Z,67.64
2022-08-17T08:37:40.539Z,68.40
2022-08-17T08:38:35.699Z,66.71
2022-08-17T08:39:34.727Z,66.02
2022-08-17T08:40:34.652Z,66.18
2022-08-17T08:41:34.648Z,66.08
2022-08-17T08:42:34.641Z,66.65
2022-08-17T08:43:34.667Z,66.45
2022-08-17T08:44:59.926Z,65.92
2022-08-17T08:45:35.605Z,66.52
2022-08-17T08:46:34.600Z,64.96
2022-08-17T08:47:35.543Z,64.83
2022-08-17T08:48:53.086Z,65.42
2022-08-17T08:50:01.821Z,65.03
2022-08-17T08:50:38.501Z,66.22
2022-08-17T08:51:34.546Z,65.13
2022-08-17T08:52:34.530Z,65.33
2022-08-17T08:53:34.534Z,64.63
2022-08-17T08:54:37.109Z,64.50
2022-08-17T08:55:41.120Z,65.39
2022-08-17T08:56:34.508Z,65.49
2022-08-17T08:57:35.122Z,65.59
2022-08-17T08:58:41.620Z,65.39
2022-08-17T08:59:35.453Z,64.17
2022-08-17T09:00:36.126Z,66.25
2022-08-17T09:01:34.499Z,64.70
2022-08-17T09:02:34.962Z,65.17
2022-08-17T09:03:52.271Z,65.26
2022-08-17T09:04:50.185Z,62.92
2022-08-17T09:05:35.384Z,64.40
2022-08-17T09:06:39.017Z,65.09
2022-08-17T09:07:34.390Z,64.80
2022-08-17T09:08:34.388Z,64.20
2022-08-17T09:09:34.368Z,64.77
2022-08-17T09:10:35.135Z,64.80
2022-08-17T09:11:34.337Z,64.34
2022-08-17T09:12:38.134Z,65.49
2022-08-17T09:13:34.654Z,64.60
2022-08-17T09:14:47.163Z,64.60
2022-08-17T09:15:36.117Z,64.80
2022-08-17T09:16:34.270Z,65.49
2022-08-17T09:17:34.267Z,64.80
2022-08-17T09:19:01.230Z,65.09
2022-08-17T09:19:35.259Z,65.20
2022-08-17T09:20:35.126Z,66.19
2022-08-17T09:21:37.127Z,64.60
2022-08-17T09:22:34.213Z,64.77
2022-08-17T09:23:35.172Z,66.25
2022-08-17T09:24:34.212Z,65.06
2022-08-17T09:25:34.192Z,66.35
2022-08-17T09:26:35.120Z,65.39
2022-08-17T09:27:35.126Z,65.49
2022-08-17T09:28:34.146Z,65.00
2022-08-17T09:29:34.155Z,65.39
2022-08-17T09:30:34.141Z,62.85
2022-08-17T09:31:49.441Z,64.40
2022-08-17T09:32:34.097Z,64.11
2022-08-17T09:33:34.089Z,65.20
2022-08-17T09:34:34.079Z,62.62
2022-08-17T09:35:37.021Z,64.31
2022-08-17T09:36:36.626Z,64.28
2022-08-17T09:37:34.044Z,64.28
2022-08-17T09:38:34.041Z,65.26
2022-08-17T09:39:34.050Z,64.57
2022-08-17T09:40:36.637Z,64.28
2022-08-17T09:41:34.062Z,64.97
2022-08-17T09:42:34.019Z,64.67
2022-08-17T09:43:33.988Z,64.28
2022-08-17T09:44:34.620Z,61.57
2022-08-17T09:45:33.956Z,62.07
2022-08-17T09:46:33.959Z,61.57
2022-08-17T09:47:33.964Z,62.76
2022-08-17T09:48:34.641Z,61.96
2022-08-17T09:49:33.928Z,61.64
2022-08-17T09:51:03.609Z,62.76
2022-08-17T09:51:34.926Z,62.49
2022-08-17T09:52:33.903Z,62.29
2022-08-17T09:53:33.882Z,62.46
2022-08-17T09:54:41.108Z,64.04
2022-08-17T09:55:34.852Z,62.56
2022-08-17T09:56:33.878Z,60.97
2022-08-17T09:57:33.958Z,62.29
2022-08-17T09:58:34.075Z,62.85
2022-08-17T09:59:38.172Z,60.88
2022-08-17T10:00:33.811Z,61.54
2022-08-17T10:01:33.873Z,62.63
2022-08-17T10:02:33.782Z,64.11
2022-08-17T10:03:33.931Z,63.71
2022-08-17T10:04:33.964Z,63.62
2022-08-17T10:05:33.741Z,62.43
2022-08-17T10:06:33.868Z,61.27
2022-08-17T10:07:33.724Z,61.10
2022-08-17T10:08:33.891Z,61.30
2022-08-17T10:09:33.706Z,62.66
2022-08-17T10:10:33.719Z,64.37
2022-08-17T10:11:34.028Z,62.56
2022-08-17T10:12:33.689Z,62.59
2022-08-17T10:13:33.665Z,64.07
2022-08-17T10:14:37.484Z,64.84
2022-08-17T10:15:34.632Z,62.39
2022-08-17T10:16:33.632Z,62.59
2022-08-17T10:17:33.637Z,62.49
2022-08-17T10:18:33.625Z,64.44
2022-08-17T10:19:40.135Z,63.75
2022-08-17T10:20:33.612Z,62.99
2022-08-17T10:21:33.567Z,64.14
2022-08-17T10:22:35.619Z,62.88
2022-08-17T10:23:33.553Z,62.49
2022-08-17T10:24:33.672Z,65.13
2022-08-17T10:25:53.457Z,64.44
2022-08-17T10:26:42.997Z,64.44
2022-08-17T10:27:35.140Z,63.68
2022-08-17T10:28:33.504Z,64.54
2022-08-17T10:29:49.094Z,62.07
2022-08-17T10:30:34.510Z,61.87
2022-08-17T10:31:35.090Z,62.56
2022-08-17T10:32:33.458Z,62.16
2022-08-17T10:33:33.453Z,62.46
2022-08-17T10:34:36.195Z,61.18
2022-08-17T10:35:34.456Z,60.97
2022-08-17T10:36:34.133Z,60.88
2022-08-17T10:37:36.143Z,62.85
2022-08-17T10:38:33.391Z,62.29
2022-08-17T10:39:36.182Z,63.98
2022-08-17T10:40:34.394Z,64.28
2022-08-17T10:41:38.202Z,64.07
2022-08-17T10:42:34.367Z,63.68
2022-08-17T10:43:34.647Z,64.04
2022-08-17T10:44:37.972Z,64.24
2022-08-17T10:45:34.326Z,64.70
2022-08-17T10:46:48.141Z,62.63
2022-08-17T10:47:52.701Z,61.94
2022-08-17T10:48:34.297Z,61.47
2022-08-17T10:49:33.271Z,62.53
2022-08-17T10:50:33.265Z,61.94
2022-08-17T10:51:33.249Z,61.94
2022-08-17T10:52:33.235Z,62.23
2022-08-17T10:53:33.682Z,62.33
2022-08-17T10:54:33.226Z,61.94
2022-08-17T10:55:34.145Z,62.43
2022-08-17T10:56:33.191Z,61.74
2022-08-17T10:57:33.196Z,61.44
2022-08-17T10:58:34.140Z,62.33
2022-08-17T10:59:33.199Z,61.15
2022-08-17T11:00:33.255Z,62.76
2022-08-17T11:01:35.721Z,62.04
2022-08-17T11:02:35.654Z,61.96
2022-08-17T11:03:35.649Z,62.07
2022-08-17T11:04:33.645Z,61.67
2022-08-17T11:05:33.175Z,62.66
2022-08-17T11:06:35.654Z,63.25
2022-08-17T11:07:35.153Z,62.56
2022-08-17T11:08:33.083Z,62.88
2022-08-17T11:09:39.661Z,64.24
2022-08-17T11:10:33.065Z,64.44
2022-08-17T11:11:35.738Z,62.66
2022-08-17T11:12:33.053Z,64.94
2022-08-17T11:13:33.642Z,64.21
2022-08-17T11:14:33.025Z,62.82
2022-08-17T11:15:32.989Z,62.63
2022-08-17T11:16:32.977Z,61.34
2022-08-17T11:17:32.966Z,63.62
2022-08-17T11:18:32.949Z,63.98
2022-08-17T11:19:32.975Z,62.82
2022-08-17T11:20:33.651Z,62.66
2022-08-17T11:21:32.962Z,62.49
2022-08-17T11:22:33.835Z,63.75
2022-08-17T11:23:32.907Z,62.88
2022-08-17T11:24:32.892Z,64.34
2022-08-17T11:25:32.900Z,62.88
2022-08-17T11:26:34.158Z,63.78
2022-08-17T11:27:35.664Z,64.67
2022-08-17T11:28:32.850Z,64.77
2022-08-17T11:29:35.666Z,63.88
2022-08-17T11:30:32.822Z,63.68
2022-08-17T11:31:39.029Z,65.06
2022-08-17T11:32:33.842Z,64.28
2022-08-17T11:33:32.790Z,64.14
2022-08-17T11:34:32.783Z,63.98
2022-08-17T11:35:32.763Z,64.14
2022-08-17T11:36:33.658Z,64.74
2022-08-17T11:37:32.809Z,64.04
2022-08-17T11:38:32.771Z,63.71
2022-08-17T11:39:32.768Z,64.51
2022-08-17T11:40:32.726Z,63.75
2022-08-17T11:41:32.699Z,62.66
2022-08-17T11:42:32.717Z,62.69
2022-08-17T11:43:32.679Z,63.68
2022-08-17T11:44:32.697Z,62.49
2022-08-17T11:45:33.192Z,63.28
2022-08-17T11:46:32.648Z,64.17
2022-08-17T11:47:32.755Z,63.71
2022-08-17T11:48:32.975Z,62.92
2022-08-17T11:49:32.611Z,62.72
2022-08-17T11:50:33.164Z,64.60
2022-08-17T11:51:32.594Z,64.50
2022-08-17T11:52:33.171Z,64.34
2022-08-17T11:53:32.597Z,64.80
2022-08-17T11:54:34.476Z,64.83
2022-08-17T11:55:38.503Z,64.93
2022-08-17T11:56:33.569Z,64.93
2022-08-17T11:57:32.530Z,65.23
2022-08-17T11:58:35.161Z,64.83
2022-08-17T11:59:32.569Z,65.53
2022-08-17T12:00:32.510Z,65.30
2022-08-17T12:01:32.506Z,65.30
2022-08-17T12:02:33.174Z,64.70
2022-08-17T12:03:32.514Z,64.80
2022-08-17T12:04:32.559Z,65.00
2022-08-17T12:05:32.473Z,65.23
2022-08-17T12:06:32.455Z,65.30
2022-08-17T12:07:32.422Z,65.09
2022-08-17T12:08:32.422Z,65.09
2022-08-17T12:09:33.162Z,65.00
2022-08-17T12:10:33.945Z,64.90
2022-08-17T12:11:57.833Z,64.80
2022-08-17T12:12:33.389Z,64.60
2022-08-17T12:13:38.669Z,64.80
2022-08-17T12:15:08.440Z,65.00
2022-08-17T12:15:33.379Z,65.17
2022-08-17T12:16:32.342Z,64.57
2022-08-17T12:17:41.029Z,64.67
2022-08-17T12:18:33.312Z,64.77
2022-08-17T12:19:32.335Z,64.64
2022-08-17T12:20:32.306Z,64.14
2022-08-17T12:21:32.319Z,64.44
2022-08-17T12:22:33.175Z,63.98
2022-08-17T12:23:32.270Z,64.34
2022-08-17T12:24:32.252Z,65.23
2022-08-17T12:25:32.242Z,64.77
2022-08-17T12:26:32.249Z,64.97
2022-08-17T12:27:46.204Z,64.87
2022-08-17T12:28:33.216Z,65.06
2022-08-17T12:29:38.893Z,64.97
2022-08-17T12:30:33.193Z,65.53
2022-08-17T12:31:32.208Z,66.22
2022-08-17T12:32:32.164Z,65.26
2022-08-17T12:33:32.159Z,65.06
2022-08-17T12:34:32.146Z,64.87
2022-08-17T12:35:32.674Z,65.36
2022-08-17T12:36:32.676Z,65.59
2022-08-17T12:37:32.148Z,66.39
2022-08-17T12:38:33.579Z,65.99
2022-08-17T12:39:34.045Z,66.49
2022-08-17T12:40:32.079Z,65.69
2022-08-17T12:41:32.078Z,66.28
2022-08-17T12:42:32.089Z,67.28
2022-08-17T12:43:32.055Z,65.99
2022-08-17T12:44:32.036Z,66.28
2022-08-17T12:45:32.034Z,66.58
2022-08-17T12:46:34.667Z,66.42
2022-08-17T12:47:32.044Z,66.49
2022-08-17T12:48:31.992Z,66.52
2022-08-17T12:49:31.999Z,66.39
2022-08-17T12:50:31.994Z,67.01
2022-08-17T12:51:32.674Z,66.98